Terminal Aerodrome Forecast
Issued by NWS

Home | Current Version | Previous Version | Text Only | Print | Product List | Glossary On
Versions: 1 2 3 4 5 6 7 8 9 10 11 12 13 14 15 16 17
000
FTUS45 KABQ 262320
TAFAEG
TAF
KAEG 262320Z 2700/2724 23011KT P6SM VCTS SCT070CB
      TEMPO 2700/2702 VRB20G35KT 6SM -TSRA OVC040CB
     FM270200 14011KT P6SM BKN080
     FM271000 13005KT P6SM SCT100
     FM271900 24012G22KT P6SM SCT120=

USA.gov is the U.S. government's official web portal to all federal, state and local government web resources and services.